sensor_id;sensor_type;location;lat;lon;timestamp;P1;P2;P0
80396;PMS5003;69721;55.894;-3.052;2024-03-02T00:01:26;0;0;
80396;PMS5003;69721;55.894;-3.052;2024-03-02T00:03:52;2;1;
80396;PMS5003;69721;55.894;-3.052;2024-03-02T00:06:19;2;1;
80396;PMS5003;69721;55.894;-3.052;2024-03-02T00:08:43;1;1;
80396;PMS5003;69721;55.894;-3.052;2024-03-02T00:11:09;1;1;
80396;PMS5003;69721;55.894;-3.052;2024-03-02T00:13:34;4;2;
80396;PMS5003;69721;55.894;-3.052;2024-03-02T00:16:00;2;2;
80396;PMS5003;69721;55.894;-3.052;2024-03-02T00:18:26;1;1;
80396;PMS5003;69721;55.894;-3.052;2024-03-02T00:23:17;2;0;
80396;PMS5003;69721;55.894;-3.052;2024-03-02T00:25:43;3;1;
80396;PMS5003;69721;55.894;-3.052;2024-03-02T00:28:13;1;0;
80396;PMS5003;69721;55.894;-3.052;2024-03-02T00:30:41;0;0;
80396;PMS5003;69721;55.894;-3.052;2024-03-02T00:32:59;0;0;
80396;PMS5003;69721;55.894;-3.052;2024-03-02T00:35:24;1;1;
80396;PMS5003;69721;55.894;-3.052;2024-03-02T00:37:50;0;0;
80396;PMS5003;69721;55.894;-3.052;2024-03-02T00:40:16;0;0;
80396;PMS5003;69721;55.894;-3.052;2024-03-02T00:42:41;1;0;
80396;PMS5003;69721;55.894;-3.052;2024-03-02T00:45:07;0;0;
80396;PMS5003;69721;55.894;-3.052;2024-03-02T00:47:33;0;0;
80396;PMS5003;69721;55.894;-3.052;2024-03-02T00:49:58;0;0;
80396;PMS5003;69721;55.894;-3.052;2024-03-02T00:52:24;0;0;
80396;PMS5003;69721;55.894;-3.052;2024-03-02T00:54:49;0;0;
80396;PMS5003;69721;55.894;-3.052;2024-03-02T00:59:40;0;0;
80396;PMS5003;69721;55.894;-3.052;2024-03-02T01:02:06;0;0;
80396;PMS5003;69721;55.894;-3.052;2024-03-02T01:04:31;2;0;
80396;PMS5003;69721;55.894;-3.052;2024-03-02T01:06:57;1;1;
80396;PMS5003;69721;55.894;-3.052;2024-03-02T01:09:23;2;0;
80396;PMS5003;69721;55.894;-3.052;2024-03-02T01:11:49;2;0;
80396;PMS5003;69721;55.894;-3.052;2024-03-02T01:14:15;0;0;
80396;PMS5003;69721;55.894;-3.052;2024-03-02T01:16:40;0;0;
80396;PMS5003;69721;55.894;-3.052;2024-03-02T01:19:06;2;0;
80396;PMS5003;69721;55.894;-3.052;2024-03-02T01:21:31;2;0;
80396;PMS5003;69721;55.894;-3.052;2024-03-02T01:23:57;0;0;
80396;PMS5003;69721;55.894;-3.052;2024-03-02T01:26:24;0;0;
80396;PMS5003;69721;55.894;-3.052;2024-03-02T01:28:50;0;0;
80396;PMS5003;69721;55.894;-3.052;2024-03-02T01:31:16;2;0;
80396;PMS5003;69721;55.894;-3.052;2024-03-02T01:33:41;4;1;
80396;PMS5003;69721;55.894;-3.052;2024-03-02T01:36:07;4;1;
80396;PMS5003;69721;55.894;-3.052;2024-03-02T01:38:32;0;0;
80396;PMS5003;69721;55.894;-3.052;2024-03-02T01:40:58;0;0;
80396;PMS5003;69721;55.894;-3.052;2024-03-02T01:43:24;0;0;
80396;PMS5003;69721;55.894;-3.052;2024-03-02T01:45:49;2;1;
80396;PMS5003;69721;55.894;-3.052;2024-03-02T01:48:15;0;0;
80396;PMS5003;69721;55.894;-3.052;2024-03-02T01:50:40;1;1;
80396;PMS5003;69721;55.894;-3.052;2024-03-02T01:53:06;0;0;
80396;PMS5003;69721;55.894;-3.052;2024-03-02T01:55:31;1;1;
80396;PMS5003;69721;55.894;-3.052;2024-03-02T01:57:57;1;1;
80396;PMS5003;69721;55.894;-3.052;2024-03-02T02:00:23;1;1;
80396;PMS5003;69721;55.894;-3.052;2024-03-02T02:02:48;1;1;
80396;PMS5003;69721;55.894;-3.052;2024-03-02T02:05:14;4;4;
80396;PMS5003;69721;55.894;-3.052;2024-03-02T02:10:05;1;1;
80396;PMS5003;69721;55.894;-3.052;2024-03-02T02:12:31;1;1;
80396;PMS5003;69721;55.894;-3.052;2024-03-02T02:14:56;0;0;
80396;PMS5003;69721;55.894;-3.052;2024-03-02T02:17:22;1;1;
80396;PMS5003;69721;55.894;-3.052;2024-03-02T02:19:47;3;1;
80396;PMS5003;69721;55.894;-3.052;2024-03-02T02:22:13;2;2;
80396;PMS5003;69721;55.894;-3.052;2024-03-02T02:24:39;5;2;
80396;PMS5003;69721;55.894;-3.052;2024-03-02T02:27:04;0;0;
80396;PMS5003;69721;55.894;-3.052;2024-03-02T02:29:29;2;2;
80396;PMS5003;69721;55.894;-3.052;2024-03-02T02:31:55;2;0;
80396;PMS5003;69721;55.894;-3.052;2024-03-02T02:34:21;2;2;
80396;PMS5003;69721;55.894;-3.052;2024-03-02T02:36:46;1;1;
80396;PMS5003;69721;55.894;-3.052;2024-03-02T02:39:13;2;1;
80396;PMS5003;69721;55.894;-3.052;2024-03-02T02:41:38;1;1;
80396;PMS5003;69721;55.894;-3.052;2024-03-02T02:44:03;5;3;
80396;PMS5003;69721;55.894;-3.052;2024-03-02T02:46:29;1;1;
80396;PMS5003;69721;55.894;-3.052;2024-03-02T02:48:54;3;1;
80396;PMS5003;69721;55.894;-3.052;2024-03-02T02:51:20;1;1;
80396;PMS5003;69721;55.894;-3.052;2024-03-02T02:53:46;3;2;
80396;PMS5003;69721;55.894;-3.052;2024-03-02T02:56:12;2;1;
80396;PMS5003;69721;55.894;-3.052;2024-03-02T02:58:39;5;2;
80396;PMS5003;69721;55.894;-3.052;2024-03-02T03:01:03;1;1;
80396;PMS5003;69721;55.894;-3.052;2024-03-02T03:03:29;1;1;
80396;PMS5003;69721;55.894;-3.052;2024-03-02T03:05:54;0;0;
80396;PMS5003;69721;55.894;-3.052;2024-03-02T03:08:20;1;1;
80396;PMS5003;69721;55.894;-3.052;2024-03-02T03:10:45;1;1;
80396;PMS5003;69721;55.894;-3.052;2024-03-02T03:13:11;3;3;
80396;PMS5003;69721;55.894;-3.052;2024-03-02T03:15:37;1;1;
80396;PMS5003;69721;55.894;-3.052;2024-03-02T03:20:28;3;3;
80396;PMS5003;69721;55.894;-3.052;2024-03-02T03:22:53;2;2;
80396;PMS5003;69721;55.894;-3.052;2024-03-02T03:25:19;1;1;
80396;PMS5003;69721;55.894;-3.052;2024-03-02T03:27:44;3;1;
80396;PMS5003;69721;55.894;-3.052;2024-03-02T03:30:10;3;1;
80396;PMS5003;69721;55.894;-3.052;2024-03-02T03:32:35;2;2;
80396;PMS5003;69721;55.894;-3.052;2024-03-02T03:35:01;1;1;
80396;PMS5003;69721;55.894;-3.052;2024-03-02T03:37:26;3;2;
80396;PMS5003;69721;55.894;-3.052;2024-03-02T03:39:52;3;3;
80396;PMS5003;69721;55.894;-3.052;2024-03-02T03:42:17;3;1;
80396;PMS5003;69721;55.894;-3.052;2024-03-02T03:44:43;5;3;
80396;PMS5003;69721;55.894;-3.052;2024-03-02T03:47:09;3;3;
80396;PMS5003;69721;55.894;-3.052;2024-03-02T03:49:34;4;4;
80396;PMS5003;69721;55.894;-3.052;2024-03-02T03:52:00;3;3;
80396;PMS5003;69721;55.894;-3.052;2024-03-02T03:54:25;5;4;
80396;PMS5003;69721;55.894;-3.052;2024-03-02T03:56:51;4;3;
80396;PMS5003;69721;55.894;-3.052;2024-03-02T03:59:16;4;4;
80396;PMS5003;69721;55.894;-3.052;2024-03-02T04:01:43;5;5;
80396;PMS5003;69721;55.894;-3.052;2024-03-02T04:04:08;6;5;
80396;PMS5003;69721;55.894;-3.052;2024-03-02T04:06:34;6;6;
80396;PMS5003;69721;55.894;-3.052;2024-03-02T04:08:59;8;4;
80396;PMS5003;69721;55.894;-3.052;2024-03-02T04:11:25;6;6;
80396;PMS5003;69721;55.894;-3.052;2024-03-02T04:13:51;10;7;
80396;PMS5003;69721;55.894;-3.052;2024-03-02T04:16:16;5;5;
80396;PMS5003;69721;55.894;-3.052;2024-03-02T04:18:42;7;6;
80396;PMS5003;69721;55.894;-3.052;2024-03-02T04:21:07;7;7;
80396;PMS5003;69721;55.894;-3.052;2024-03-02T04:23:33;6;6;
80396;PMS5003;69721;55.894;-3.052;2024-03-02T04:25:58;11;8;
80396;PMS5003;69721;55.894;-3.052;2024-03-02T04:30:49;6;6;
80396;PMS5003;69721;55.894;-3.052;2024-03-02T04:33:14;12;10;
80396;PMS5003;69721;55.894;-3.052;2024-03-02T04:35:41;8;8;
80396;PMS5003;69721;55.894;-3.052;2024-03-02T04:38:06;11;7;
80396;PMS5003;69721;55.894;-3.052;2024-03-02T04:40:31;10;8;
80396;PMS5003;69721;55.894;-3.052;2024-03-02T04:42:57;8;8;
80396;PMS5003;69721;55.894;-3.052;2024-03-02T04:45:23;13;8;
80396;PMS5003;69721;55.894;-3.052;2024-03-02T04:47:48;9;9;
80396;PMS5003;69721;55.894;-3.052;2024-03-02T04:50:13;11;9;
80396;PMS5003;69721;55.894;-3.052;2024-03-02T04:52:39;9;9;
80396;PMS5003;69721;55.894;-3.052;2024-03-02T04:55:04;13;12;
80396;PMS5003;69721;55.894;-3.052;2024-03-02T04:57:30;14;12;
80396;PMS5003;69721;55.894;-3.052;2024-03-02T04:59:56;8;7;
80396;PMS5003;69721;55.894;-3.052;2024-03-02T05:02:21;8;6;
80396;PMS5003;69721;55.894;-3.052;2024-03-02T05:04:46;6;6;
80396;PMS5003;69721;55.894;-3.052;2024-03-02T05:07:14;6;5;
80396;PMS5003;69721;55.894;-3.052;2024-03-02T05:09:39;5;3;
80396;PMS5003;69721;55.894;-3.052;2024-03-02T05:12:05;5;5;
80396;PMS5003;69721;55.894;-3.052;2024-03-02T05:14:31;9;5;
80396;PMS5003;69721;55.894;-3.052;2024-03-02T05:16:56;2;2;
80396;PMS5003;69721;55.894;-3.052;2024-03-02T05:19:22;4;4;
80396;PMS5003;69721;55.894;-3.052;2024-03-02T05:21:47;3;3;
80396;PMS5003;69721;55.894;-3.052;2024-03-02T05:24:13;4;3;
80396;PMS5003;69721;55.894;-3.052;2024-03-02T05:26:39;3;3;
80396;PMS5003;69721;55.894;-3.052;2024-03-02T05:31:30;4;3;
80396;PMS5003;69721;55.894;-3.052;2024-03-02T05:33:55;5;3;
80396;PMS5003;69721;55.894;-3.052;2024-03-02T05:36:21;6;4;
80396;PMS5003;69721;55.894;-3.052;2024-03-02T05:41:12;5;3;
80396;PMS5003;69721;55.894;-3.052;2024-03-02T05:43:38;3;3;
80396;PMS5003;69721;55.894;-3.052;2024-03-02T05:46:03;5;4;
80396;PMS5003;69721;55.894;-3.052;2024-03-02T05:48:29;4;3;
80396;PMS5003;69721;55.894;-3.052;2024-03-02T05:50:55;4;4;
80396;PMS5003;69721;55.894;-3.052;2024-03-02T05:53:20;3;3;
80396;PMS5003;69721;55.894;-3.052;2024-03-02T05:55:46;3;3;
80396;PMS5003;69721;55.894;-3.052;2024-03-02T05:58:11;3;3;
80396;PMS5003;69721;55.894;-3.052;2024-03-02T06:00:37;3;3;
80396;PMS5003;69721;55.894;-3.052;2024-03-02T06:03:03;3;3;
80396;PMS5003;69721;55.894;-3.052;2024-03-02T06:05:28;3;3;
80396;PMS5003;69721;55.894;-3.052;2024-03-02T06:07:54;3;3;
80396;PMS5003;69721;55.894;-3.052;2024-03-02T06:10:19;5;3;
80396;PMS5003;69721;55.894;-3.052;2024-03-02T06:12:45;3;3;
80396;PMS5003;69721;55.894;-3.052;2024-03-02T06:15:11;5;5;
80396;PMS5003;69721;55.894;-3.052;2024-03-02T06:17:36;3;3;
80396;PMS5003;69721;55.894;-3.052;2024-03-02T06:20:02;3;3;
80396;PMS5003;69721;55.894;-3.052;2024-03-02T06:22:28;5;5;
80396;PMS5003;69721;55.894;-3.052;2024-03-02T06:24:54;4;4;
80396;PMS5003;69721;55.894;-3.052;2024-03-02T06:27:20;4;4;
80396;PMS5003;69721;55.894;-3.052;2024-03-02T06:29:45;3;3;
80396;PMS5003;69721;55.894;-3.052;2024-03-02T06:32:11;6;4;
80396;PMS5003;69721;55.894;-3.052;2024-03-02T06:34:36;13;10;
80396;PMS5003;69721;55.894;-3.052;2024-03-02T06:37:02;11;10;
80396;PMS5003;69721;55.894;-3.052;2024-03-02T06:39:27;5;3;
80396;PMS5003;69721;55.894;-3.052;2024-03-02T06:41:53;10;4;
80396;PMS5003;69721;55.894;-3.052;2024-03-02T06:44:19;5;4;
80396;PMS5003;69721;55.894;-3.052;2024-03-02T06:46:44;5;5;
80396;PMS5003;69721;55.894;-3.052;2024-03-02T06:51:35;6;5;
80396;PMS5003;69721;55.894;-3.052;2024-03-02T06:54:01;5;4;
80396;PMS5003;69721;55.894;-3.052;2024-03-02T06:56:26;5;4;
80396;PMS5003;69721;55.894;-3.052;2024-03-02T06:58:52;5;5;
80396;PMS5003;69721;55.894;-3.052;2024-03-02T07:01:18;9;5;
80396;PMS5003;69721;55.894;-3.052;2024-03-02T07:03:43;7;6;
80396;PMS5003;69721;55.894;-3.052;2024-03-02T07:06:09;7;7;
80396;PMS5003;69721;55.894;-3.052;2024-03-02T07:08:35;5;5;
80396;PMS5003;69721;55.894;-3.052;2024-03-02T07:11:01;6;4;
80396;PMS5003;69721;55.894;-3.052;2024-03-02T07:13:27;8;6;
80396;PMS5003;69721;55.894;-3.052;2024-03-02T07:15:52;6;5;
80396;PMS5003;69721;55.894;-3.052;2024-03-02T07:18:18;9;6;
80396;PMS5003;69721;55.894;-3.052;2024-03-02T07:20:44;11;9;
80396;PMS5003;69721;55.894;-3.052;2024-03-02T07:23:09;10;9;
80396;PMS5003;69721;55.894;-3.052;2024-03-02T07:25:35;11;9;
80396;PMS5003;69721;55.894;-3.052;2024-03-02T07:28:00;9;8;
80396;PMS5003;69721;55.894;-3.052;2024-03-02T07:30:26;12;9;
80396;PMS5003;69721;55.894;-3.052;2024-03-02T07:32:52;12;10;
80396;PMS5003;69721;55.894;-3.052;2024-03-02T07:35:17;9;7;
80396;PMS5003;69721;55.894;-3.052;2024-03-02T07:37:43;10;9;
80396;PMS5003;69721;55.894;-3.052;2024-03-02T07:40:09;21;14;
80396;PMS5003;69721;55.894;-3.052;2024-03-02T07:42:34;17;16;
80396;PMS5003;69721;55.894;-3.052;2024-03-02T07:44:59;14;12;
80396;PMS5003;69721;55.894;-3.052;2024-03-02T07:47:25;21;20;
80396;PMS5003;69721;55.894;-3.052;2024-03-02T07:49:50;30;27;
80396;PMS5003;69721;55.894;-3.052;2024-03-02T07:52:15;28;21;
80396;PMS5003;69721;55.894;-3.052;2024-03-02T07:54:40;29;22;
80396;PMS5003;69721;55.894;-3.052;2024-03-02T07:57:05;39;32;
80396;PMS5003;69721;55.894;-3.052;2024-03-02T08:01:57;36;34;
80396;PMS5003;69721;55.894;-3.052;2024-03-02T08:04:22;40;30;
80396;PMS5003;69721;55.894;-3.052;2024-03-02T08:06:48;26;26;
80396;PMS5003;69721;55.894;-3.052;2024-03-02T08:09:13;38;30;
80396;PMS5003;69721;55.894;-3.052;2024-03-02T08:11:38;32;29;
80396;PMS5003;69721;55.894;-3.052;2024-03-02T08:14:04;27;21;
80396;PMS5003;69721;55.894;-3.052;2024-03-02T08:16:30;18;14;
80396;PMS5003;69721;55.894;-3.052;2024-03-02T08:18:55;18;15;
80396;PMS5003;69721;55.894;-3.052;2024-03-02T08:21:20;18;14;
80396;PMS5003;69721;55.894;-3.052;2024-03-02T08:23:46;14;12;
80396;PMS5003;69721;55.894;-3.052;2024-03-02T08:26:11;17;12;
80396;PMS5003;69721;55.894;-3.052;2024-03-02T08:28:37;15;11;
80396;PMS5003;69721;55.894;-3.052;2024-03-02T08:31:03;13;13;
80396;PMS5003;69721;55.894;-3.052;2024-03-02T08:33:28;7;5;
80396;PMS5003;69721;55.894;-3.052;2024-03-02T08:35:54;6;5;
80396;PMS5003;69721;55.894;-3.052;2024-03-02T08:38:19;9;5;
80396;PMS5003;69721;55.894;-3.052;2024-03-02T08:40:45;7;7;
80396;PMS5003;69721;55.894;-3.052;2024-03-02T08:43:10;5;5;
80396;PMS5003;69721;55.894;-3.052;2024-03-02T08:45:36;7;7;
80396;PMS5003;69721;55.894;-3.052;2024-03-02T08:48:02;9;5;
80396;PMS5003;69721;55.894;-3.052;2024-03-02T08:50:27;6;6;
80396;PMS5003;69721;55.894;-3.052;2024-03-02T08:52:53;5;5;
80396;PMS5003;69721;55.894;-3.052;2024-03-02T08:55:19;6;6;
80396;PMS5003;69721;55.894;-3.052;2024-03-02T08:57:45;9;7;
80396;PMS5003;69721;55.894;-3.052;2024-03-02T09:00:11;12;10;
80396;PMS5003;69721;55.894;-3.052;2024-03-02T09:02:36;14;12;
80396;PMS5003;69721;55.894;-3.052;2024-03-02T09:05:01;14;8;
80396;PMS5003;69721;55.894;-3.052;2024-03-02T09:12:17;18;17;
80396;PMS5003;69721;55.894;-3.052;2024-03-02T09:14:43;11;9;
80396;PMS5003;69721;55.894;-3.052;2024-03-02T09:17:08;9;8;
80396;PMS5003;69721;55.894;-3.052;2024-03-02T09:19:34;5;5;
80396;PMS5003;69721;55.894;-3.052;2024-03-02T09:21:59;12;11;
80396;PMS5003;69721;55.894;-3.052;2024-03-02T09:24:25;8;8;
80396;PMS5003;69721;55.894;-3.052;2024-03-02T09:26:51;9;7;
80396;PMS5003;69721;55.894;-3.052;2024-03-02T09:29:17;7;5;
80396;PMS5003;69721;55.894;-3.052;2024-03-02T09:31:43;7;7;
80396;PMS5003;69721;55.894;-3.052;2024-03-02T09:34:08;7;6;
80396;PMS5003;69721;55.894;-3.052;2024-03-02T09:36:33;15;10;
80396;PMS5003;69721;55.894;-3.052;2024-03-02T09:38:59;7;7;
80396;PMS5003;69721;55.894;-3.052;2024-03-02T09:41:24;11;8;
80396;PMS5003;69721;55.894;-3.052;2024-03-02T09:43:50;7;7;
80396;PMS5003;69721;55.894;-3.052;2024-03-02T09:46:15;11;9;
80396;PMS5003;69721;55.894;-3.052;2024-03-02T09:48:41;9;9;
80396;PMS5003;69721;55.894;-3.052;2024-03-02T09:51:06;12;10;
80396;PMS5003;69721;55.894;-3.052;2024-03-02T09:53:33;12;9;
80396;PMS5003;69721;55.894;-3.052;2024-03-02T09:55:58;9;9;
80396;PMS5003;69721;55.894;-3.052;2024-03-02T09:58:23;13;8;
80396;PMS5003;69721;55.894;-3.052;2024-03-02T10:00:49;19;18;
80396;PMS5003;69721;55.894;-3.052;2024-03-02T10:03:14;8;8;
80396;PMS5003;69721;55.894;-3.052;2024-03-02T10:05:41;9;9;
80396;PMS5003;69721;55.894;-3.052;2024-03-02T10:08:06;11;9;
80396;PMS5003;69721;55.894;-3.052;2024-03-02T10:10:36;11;9;
80396;PMS5003;69721;55.894;-3.052;2024-03-02T10:13:00;12;8;
80396;PMS5003;69721;55.894;-3.052;2024-03-02T10:15:23;9;9;
80396;PMS5003;69721;55.894;-3.052;2024-03-02T10:20:22;7;7;
80396;PMS5003;69721;55.894;-3.052;2024-03-02T10:22:40;6;5;
80396;PMS5003;69721;55.894;-3.052;2024-03-02T10:25:05;13;10;
80396;PMS5003;69721;55.894;-3.052;2024-03-02T10:27:31;10;7;
80396;PMS5003;69721;55.894;-3.052;2024-03-02T10:29:56;16;11;
80396;PMS5003;69721;55.894;-3.052;2024-03-02T10:32:22;9;9;
80396;PMS5003;69721;55.894;-3.052;2024-03-02T10:34:48;7;7;
80396;PMS5003;69721;55.894;-3.052;2024-03-02T10:37:14;8;7;
80396;PMS5003;69721;55.894;-3.052;2024-03-02T10:39:39;11;7;
80396;PMS5003;69721;55.894;-3.052;2024-03-02T10:42:05;8;7;
80396;PMS5003;69721;55.894;-3.052;2024-03-02T10:44:30;11;9;
80396;PMS5003;69721;55.894;-3.052;2024-03-02T10:46:56;8;6;
80396;PMS5003;69721;55.894;-3.052;2024-03-02T10:49:21;8;6;
80396;PMS5003;69721;55.894;-3.052;2024-03-02T10:51:47;8;8;
80396;PMS5003;69721;55.894;-3.052;2024-03-02T10:54:12;12;11;
80396;PMS5003;69721;55.894;-3.052;2024-03-02T10:56:39;11;8;
80396;PMS5003;69721;55.894;-3.052;2024-03-02T10:59:03;9;9;
80396;PMS5003;69721;55.894;-3.052;2024-03-02T11:01:29;12;10;
80396;PMS5003;69721;55.894;-3.052;2024-03-02T11:03:54;13;11;
80396;PMS5003;69721;55.894;-3.052;2024-03-02T11:06:19;11;9;
80396;PMS5003;69721;55.894;-3.052;2024-03-02T11:08:45;14;10;
80396;PMS5003;69721;55.894;-3.052;2024-03-02T11:11:12;12;11;
80396;PMS5003;69721;55.894;-3.052;2024-03-02T11:13:36;10;9;
80396;PMS5003;69721;55.894;-3.052;2024-03-02T11:16:03;14;14;
80396;PMS5003;69721;55.894;-3.052;2024-03-02T11:18:27;11;11;
80396;PMS5003;69721;55.894;-3.052;2024-03-02T11:20:52;9;9;
80396;PMS5003;69721;55.894;-3.052;2024-03-02T11:23:17;10;8;
80396;PMS5003;69721;55.894;-3.052;2024-03-02T11:25:43;10;9;
80396;PMS5003;69721;55.894;-3.052;2024-03-02T11:33:00;10;10;
80396;PMS5003;69721;55.894;-3.052;2024-03-02T11:35:25;15;15;
80396;PMS5003;69721;55.894;-3.052;2024-03-02T11:37:51;14;13;
80396;PMS5003;69721;55.894;-3.052;2024-03-02T11:40:19;11;11;
80396;PMS5003;69721;55.894;-3.052;2024-03-02T11:42:42;12;8;
80396;PMS5003;69721;55.894;-3.052;2024-03-02T11:45:08;12;11;
80396;PMS5003;69721;55.894;-3.052;2024-03-02T11:47:33;11;11;
80396;PMS5003;69721;55.894;-3.052;2024-03-02T11:49:58;11;10;
80396;PMS5003;69721;55.894;-3.052;2024-03-02T11:52:24;12;8;
80396;PMS5003;69721;55.894;-3.052;2024-03-02T11:54:49;9;8;
80396;PMS5003;69721;55.894;-3.052;2024-03-02T11:57:15;20;11;
80396;PMS5003;69721;55.894;-3.052;2024-03-02T11:59:40;12;10;
80396;PMS5003;69721;55.894;-3.052;2024-03-02T12:02:05;9;9;
80396;PMS5003;69721;55.894;-3.052;2024-03-02T12:04:31;10;9;
80396;PMS5003;69721;55.894;-3.052;2024-03-02T12:06:56;9;8;
80396;PMS5003;69721;55.894;-3.052;2024-03-02T12:09:21;12;10;
80396;PMS5003;69721;55.894;-3.052;2024-03-02T12:11:47;10;8;
80396;PMS5003;69721;55.894;-3.052;2024-03-02T12:14:12;11;11;
80396;PMS5003;69721;55.894;-3.052;2024-03-02T12:16:38;12;11;
80396;PMS5003;69721;55.894;-3.052;2024-03-02T12:19:03;16;11;
80396;PMS5003;69721;55.894;-3.052;2024-03-02T12:21:28;12;12;
80396;PMS5003;69721;55.894;-3.052;2024-03-02T12:23:54;14;11;
80396;PMS5003;69721;55.894;-3.052;2024-03-02T12:26:19;17;11;
80396;PMS5003;69721;55.894;-3.052;2024-03-02T12:28:45;17;16;
80396;PMS5003;69721;55.894;-3.052;2024-03-02T12:31:10;17;15;
80396;PMS5003;69721;55.894;-3.052;2024-03-02T12:33:36;14;13;
80396;PMS5003;69721;55.894;-3.052;2024-03-02T12:36:02;11;9;
80396;PMS5003;69721;55.894;-3.052;2024-03-02T12:40:52;3;3;
80396;PMS5003;69721;55.894;-3.052;2024-03-02T12:43:18;10;8;
80396;PMS5003;69721;55.894;-3.052;2024-03-02T12:45:44;13;11;
80396;PMS5003;69721;55.894;-3.052;2024-03-02T12:48:09;21;16;
80396;PMS5003;69721;55.894;-3.052;2024-03-02T12:50:34;15;13;
80396;PMS5003;69721;55.894;-3.052;2024-03-02T12:53:00;12;10;
80396;PMS5003;69721;55.894;-3.052;2024-03-02T12:55:25;19;13;
80396;PMS5003;69721;55.894;-3.052;2024-03-02T12:57:50;12;11;
80396;PMS5003;69721;55.894;-3.052;2024-03-02T13:00:21;7;4;
80396;PMS5003;69721;55.894;-3.052;2024-03-02T13:02:42;4;4;
80396;PMS5003;69721;55.894;-3.052;2024-03-02T13:05:07;2;2;
80396;PMS5003;69721;55.894;-3.052;2024-03-02T13:07:32;3;2;
80396;PMS5003;69721;55.894;-3.052;2024-03-02T13:09:58;4;2;
80396;PMS5003;69721;55.894;-3.052;2024-03-02T13:12:24;5;4;
80396;PMS5003;69721;55.894;-3.052;2024-03-02T13:14:49;5;4;
80396;PMS5003;69721;55.894;-3.052;2024-03-02T13:17:14;9;5;
80396;PMS5003;69721;55.894;-3.052;2024-03-02T13:19:50;8;4;
80396;PMS5003;69721;55.894;-3.052;2024-03-02T13:22:05;6;5;
80396;PMS5003;69721;55.894;-3.052;2024-03-02T13:24:31;8;5;
80396;PMS5003;69721;55.894;-3.052;2024-03-02T13:26:57;6;6;
80396;PMS5003;69721;55.894;-3.052;2024-03-02T13:29:22;5;5;
80396;PMS5003;69721;55.894;-3.052;2024-03-02T13:31:47;7;5;
80396;PMS5003;69721;55.894;-3.052;2024-03-02T13:34:13;7;7;
80396;PMS5003;69721;55.894;-3.052;2024-03-02T13:36:38;6;5;
80396;PMS5003;69721;55.894;-3.052;2024-03-02T13:39:04;7;7;
80396;PMS5003;69721;55.894;-3.052;2024-03-02T13:41:29;6;6;
80396;PMS5003;69721;55.894;-3.052;2024-03-02T13:43:55;7;7;
80396;PMS5003;69721;55.894;-3.052;2024-03-02T13:46:20;6;6;
80396;PMS5003;69721;55.894;-3.052;2024-03-02T13:48:51;6;6;
80396;PMS5003;69721;55.894;-3.052;2024-03-02T13:51:11;6;4;
80396;PMS5003;69721;55.894;-3.052;2024-03-02T13:53:37;4;4;
80396;PMS5003;69721;55.894;-3.052;2024-03-02T13:56:02;8;6;
80396;PMS5003;69721;55.894;-3.052;2024-03-02T13:58:28;4;4;
80396;PMS5003;69721;55.894;-3.052;2024-03-02T14:00:53;9;8;
80396;PMS5003;69721;55.894;-3.052;2024-03-02T14:03:19;11;10;
80396;PMS5003;69721;55.894;-3.052;2024-03-02T14:05:45;8;7;
80396;PMS5003;69721;55.894;-3.052;2024-03-02T14:08:10;4;4;
80396;PMS5003;69721;55.894;-3.052;2024-03-02T14:10:35;6;6;
80396;PMS5003;69721;55.894;-3.052;2024-03-02T14:13:01;10;7;
80396;PMS5003;69721;55.894;-3.052;2024-03-02T14:15:26;4;4;
80396;PMS5003;69721;55.894;-3.052;2024-03-02T14:17:53;4;4;
80396;PMS5003;69721;55.894;-3.052;2024-03-02T14:20:18;5;5;
80396;PMS5003;69721;55.894;-3.052;2024-03-02T14:22:44;7;6;
80396;PMS5003;69721;55.894;-3.052;2024-03-02T14:25:09;7;4;
80396;PMS5003;69721;55.894;-3.052;2024-03-02T14:27:35;9;9;
80396;PMS5003;69721;55.894;-3.052;2024-03-02T14:30:00;7;6;
80396;PMS5003;69721;55.894;-3.052;2024-03-02T14:32:26;6;6;
80396;PMS5003;69721;55.894;-3.052;2024-03-02T14:34:51;8;6;
80396;PMS5003;69721;55.894;-3.052;2024-03-02T14:37:17;10;8;
80396;PMS5003;69721;55.894;-3.052;2024-03-02T14:39:42;9;5;
80396;PMS5003;69721;55.894;-3.052;2024-03-02T14:42:08;12;7;
80396;PMS5003;69721;55.894;-3.052;2024-03-02T14:44:33;8;8;
80396;PMS5003;69721;55.894;-3.052;2024-03-02T14:47:00;8;7;
80396;PMS5003;69721;55.894;-3.052;2024-03-02T14:49:25;8;7;
80396;PMS5003;69721;55.894;-3.052;2024-03-02T14:51:51;9;9;
80396;PMS5003;69721;55.894;-3.052;2024-03-02T14:54:16;7;7;
80396;PMS5003;69721;55.894;-3.052;2024-03-02T14:56:42;6;6;
80396;PMS5003;69721;55.894;-3.052;2024-03-02T14:59:07;7;7;
80396;PMS5003;69721;55.894;-3.052;2024-03-02T15:01:33;6;6;
80396;PMS5003;69721;55.894;-3.052;2024-03-02T15:03:58;7;5;
80396;PMS5003;69721;55.894;-3.052;2024-03-02T15:06:24;8;6;
80396;PMS5003;69721;55.894;-3.052;2024-03-02T15:08:49;8;7;
80396;PMS5003;69721;55.894;-3.052;2024-03-02T15:11:15;6;6;
80396;PMS5003;69721;55.894;-3.052;2024-03-02T15:13:40;5;3;
80396;PMS5003;69721;55.894;-3.052;2024-03-02T15:16:06;4;4;
80396;PMS5003;69721;55.894;-3.052;2024-03-02T15:18:31;2;2;
80396;PMS5003;69721;55.894;-3.052;2024-03-02T15:20:57;5;4;
80396;PMS5003;69721;55.894;-3.052;2024-03-02T15:23:22;3;3;
80396;PMS5003;69721;55.894;-3.052;2024-03-02T15:25:48;5;4;
80396;PMS5003;69721;55.894;-3.052;2024-03-02T15:28:13;3;3;
80396;PMS5003;69721;55.894;-3.052;2024-03-02T15:30:39;3;3;
80396;PMS5003;69721;55.894;-3.052;2024-03-02T15:33:04;5;5;
80396;PMS5003;69721;55.894;-3.052;2024-03-02T15:35:30;7;5;
80396;PMS5003;69721;55.894;-3.052;2024-03-02T15:37:55;3;3;
80396;PMS5003;69721;55.894;-3.052;2024-03-02T15:40:21;4;4;
80396;PMS5003;69721;55.894;-3.052;2024-03-02T15:42:46;5;5;
80396;PMS5003;69721;55.894;-3.052;2024-03-02T15:45:12;5;5;
80396;PMS5003;69721;55.894;-3.052;2024-03-02T15:47:37;7;7;
80396;PMS5003;69721;55.894;-3.052;2024-03-02T15:50:05;7;7;
80396;PMS5003;69721;55.894;-3.052;2024-03-02T15:52:28;10;8;
80396;PMS5003;69721;55.894;-3.052;2024-03-02T15:54:54;14;10;
80396;PMS5003;69721;55.894;-3.052;2024-03-02T15:57:20;9;8;
80396;PMS5003;69721;55.894;-3.052;2024-03-02T15:59:45;6;6;
80396;PMS5003;69721;55.894;-3.052;2024-03-02T16:02:11;10;9;
80396;PMS5003;69721;55.894;-3.052;2024-03-02T16:04:36;6;6;
80396;PMS5003;69721;55.894;-3.052;2024-03-02T16:07:02;7;7;
80396;PMS5003;69721;55.894;-3.052;2024-03-02T16:09:27;11;10;
80396;PMS5003;69721;55.894;-3.052;2024-03-02T16:11:53;7;6;
80396;PMS5003;69721;55.894;-3.052;2024-03-02T16:14:18;6;6;
80396;PMS5003;69721;55.894;-3.052;2024-03-02T16:16:44;5;5;
80396;PMS5003;69721;55.894;-3.052;2024-03-02T16:19:09;4;3;
80396;PMS5003;69721;55.894;-3.052;2024-03-02T16:21:35;2;2;
80396;PMS5003;69721;55.894;-3.052;2024-03-02T16:24:00;5;2;
80396;PMS5003;69721;55.894;-3.052;2024-03-02T16:26:26;5;3;
80396;PMS5003;69721;55.894;-3.052;2024-03-02T16:28:51;1;1;
80396;PMS5003;69721;55.894;-3.052;2024-03-02T16:31:17;2;1;
80396;PMS5003;69721;55.894;-3.052;2024-03-02T16:33:43;1;1;
80396;PMS5003;69721;55.894;-3.052;2024-03-02T16:36:08;0;0;
80396;PMS5003;69721;55.894;-3.052;2024-03-02T16:38:34;0;0;
80396;PMS5003;69721;55.894;-3.052;2024-03-02T16:40:59;2;0;
80396;PMS5003;69721;55.894;-3.052;2024-03-02T16:43:25;1;1;
80396;PMS5003;69721;55.894;-3.052;2024-03-02T16:45:50;2;0;
80396;PMS5003;69721;55.894;-3.052;2024-03-02T16:48:16;3;2;
80396;PMS5003;69721;55.894;-3.052;2024-03-02T16:50:42;2;2;